Terminal Aerodrome Forecast
Issued by NWS

Home | Current Version | Previous Version | Graphics & Text | Print | Product List | Glossary On
Versions: 1 2 3 4 5 6 7 8 9 10 11 12 13 14
020
FTUS43 KABR 242327
TAFMBG
TAF
KMBG 242327Z 2500/2524 22016KT P6SM SKC
     FM250500 27018G29KT P6SM SCT035
     FM250700 29019G30KT P6SM OVC015
     FM251000 30023G34KT P6SM OVC015
     FM251400 31024G34KT P6SM OVC035
     FM251700 31025G35KT P6SM SCT050=

USA.gov is the U.S. government's official web portal to all federal, state and local government web resources and services.